sensor_id;sensor_type;location;lat;lon;timestamp;temperature;humidity
19799;DHT22;10059;59.850;10.454;2022-09-09T00:00:54;13.40;99.90
19799;DHT22;10059;59.850;10.454;2022-09-09T00:03:25;13.40;99.90
19799;DHT22;10059;59.850;10.454;2022-09-09T00:05:59;13.40;99.90
19799;DHT22;10059;59.850;10.454;2022-09-09T00:08:37;13.40;99.90
19799;DHT22;10059;59.850;10.454;2022-09-09T00:11:08;13.40;99.90
19799;DHT22;10059;59.850;10.454;2022-09-09T00:13:40;13.40;99.90
19799;DHT22;10059;59.850;10.454;2022-09-09T00:16:12;13.30;99.90
19799;DHT22;10059;59.850;10.454;2022-09-09T00:18:49;13.30;99.90
19799;DHT22;10059;59.850;10.454;2022-09-09T00:21:21;13.30;99.90
19799;DHT22;10059;59.850;10.454;2022-09-09T00:23:52;13.30;99.90
19799;DHT22;10059;59.850;10.454;2022-09-09T00:26:24;13.20;99.90
19799;DHT22;10059;59.850;10.454;2022-09-09T00:29:03;13.20;99.90
19799;DHT22;10059;59.850;10.454;2022-09-09T00:31:32;13.20;99.90
19799;DHT22;10059;59.850;10.454;2022-09-09T00:34:03;13.30;99.90
19799;DHT22;10059;59.850;10.454;2022-09-09T00:36:36;13.30;99.90
19799;DHT22;10059;59.850;10.454;2022-09-09T00:39:04;13.20;99.90
19799;DHT22;10059;59.850;10.454;2022-09-09T00:41:43;13.20;99.90
19799;DHT22;10059;59.850;10.454;2022-09-09T00:44:21;13.20;99.90
19799;DHT22;10059;59.850;10.454;2022-09-09T00:46:59;13.20;99.90
19799;DHT22;10059;59.850;10.454;2022-09-09T00:49:39;13.20;99.90
19799;DHT22;10059;59.850;10.454;2022-09-09T00:52:21;13.20;99.90
19799;DHT22;10059;59.850;10.454;2022-09-09T00:55:03;13.20;99.90
19799;DHT22;10059;59.850;10.454;2022-09-09T00:57:32;13.20;99.90
19799;DHT22;10059;59.850;10.454;2022-09-09T01:00:17;13.10;99.90
19799;DHT22;10059;59.850;10.454;2022-09-09T01:02:52;13.10;99.90
19799;DHT22;10059;59.850;10.454;2022-09-09T01:05:27;13.30;99.90
19799;DHT22;10059;59.850;10.454;2022-09-09T01:07:58;13.30;99.90
19799;DHT22;10059;59.850;10.454;2022-09-09T01:10:39;13.20;99.90
19799;DHT22;10059;59.850;10.454;2022-09-09T01:13:13;13.20;99.90
19799;DHT22;10059;59.850;10.454;2022-09-09T01:15:43;13.30;99.90
19799;DHT22;10059;59.850;10.454;2022-09-09T01:18:14;13.30;99.90
19799;DHT22;10059;59.850;10.454;2022-09-09T01:20:49;13.40;99.90
19799;DHT22;10059;59.850;10.454;2022-09-09T01:23:50;13.30;99.90
19799;DHT22;10059;59.850;10.454;2022-09-09T01:26:28;13.30;99.90
19799;DHT22;10059;59.850;10.454;2022-09-09T01:28:57;13.40;99.90
19799;DHT22;10059;59.850;10.454;2022-09-09T01:31:28;13.30;99.90
19799;DHT22;10059;59.850;10.454;2022-09-09T01:33:58;13.30;99.90
19799;DHT22;10059;59.850;10.454;2022-09-09T01:36:29;13.30;99.90
19799;DHT22;10059;59.850;10.454;2022-09-09T01:38:59;13.20;99.90
19799;DHT22;10059;59.850;10.454;2022-09-09T01:41:27;13.20;99.90
19799;DHT22;10059;59.850;10.454;2022-09-09T01:43:55;13.20;99.90
19799;DHT22;10059;59.850;10.454;2022-09-09T01:46:23;13.30;99.90
19799;DHT22;10059;59.850;10.454;2022-09-09T01:48:51;13.30;99.90
19799;DHT22;10059;59.850;10.454;2022-09-09T01:51:19;13.30;99.90
19799;DHT22;10059;59.850;10.454;2022-09-09T01:53:46;13.30;99.90
19799;DHT22;10059;59.850;10.454;2022-09-09T01:56:25;13.20;99.90
19799;DHT22;10059;59.850;10.454;2022-09-09T01:59:08;13.20;99.90
19799;DHT22;10059;59.850;10.454;2022-09-09T02:01:47;13.20;99.90
19799;DHT22;10059;59.850;10.454;2022-09-09T02:04:27;13.20;99.90
19799;DHT22;10059;59.850;10.454;2022-09-09T02:06:57;13.30;99.90
19799;DHT22;10059;59.850;10.454;2022-09-09T02:09:26;13.20;99.90
19799;DHT22;10059;59.850;10.454;2022-09-09T02:11:57;13.20;99.90
19799;DHT22;10059;59.850;10.454;2022-09-09T02:14:32;13.20;99.90
19799;DHT22;10059;59.850;10.454;2022-09-09T02:17:05;13.10;99.90
19799;DHT22;10059;59.850;10.454;2022-09-09T02:19:37;13.00;99.90
19799;DHT22;10059;59.850;10.454;2022-09-09T02:22:05;13.10;99.90
19799;DHT22;10059;59.850;10.454;2022-09-09T02:24:36;13.10;99.90
19799;DHT22;10059;59.850;10.454;2022-09-09T02:27:06;13.10;99.90
19799;DHT22;10059;59.850;10.454;2022-09-09T02:29:38;12.90;99.90
19799;DHT22;10059;59.850;10.454;2022-09-09T02:32:10;13.00;99.90
19799;DHT22;10059;59.850;10.454;2022-09-09T02:34:41;12.90;99.90
19799;DHT22;10059;59.850;10.454;2022-09-09T02:37:10;13.00;99.90
19799;DHT22;10059;59.850;10.454;2022-09-09T02:39:37;13.00;99.90
19799;DHT22;10059;59.850;10.454;2022-09-09T02:42:04;12.90;99.90
19799;DHT22;10059;59.850;10.454;2022-09-09T02:44:35;12.90;99.90
19799;DHT22;10059;59.850;10.454;2022-09-09T02:47:21;12.80;99.90
19799;DHT22;10059;59.850;10.454;2022-09-09T02:49:58;12.80;99.90
19799;DHT22;10059;59.850;10.454;2022-09-09T02:52:35;12.80;99.90
19799;DHT22;10059;59.850;10.454;2022-09-09T02:55:07;12.80;99.90
19799;DHT22;10059;59.850;10.454;2022-09-09T02:57:35;12.80;99.90
19799;DHT22;10059;59.850;10.454;2022-09-09T03:00:05;12.80;99.90
19799;DHT22;10059;59.850;10.454;2022-09-09T03:02:32;12.80;99.90
19799;DHT22;10059;59.850;10.454;2022-09-09T03:04:59;12.80;99.90
19799;DHT22;10059;59.850;10.454;2022-09-09T03:07:26;12.80;99.90
19799;DHT22;10059;59.850;10.454;2022-09-09T03:09:53;12.70;99.90
19799;DHT22;10059;59.850;10.454;2022-09-09T03:12:20;12.70;99.90
19799;DHT22;10059;59.850;10.454;2022-09-09T03:14:47;12.60;99.90
19799;DHT22;10059;59.850;10.454;2022-09-09T03:17:15;12.60;99.90
19799;DHT22;10059;59.850;10.454;2022-09-09T03:19:42;12.70;99.90
19799;DHT22;10059;59.850;10.454;2022-09-09T03:22:10;12.60;99.90
19799;DHT22;10059;59.850;10.454;2022-09-09T03:24:39;12.60;99.90
19799;DHT22;10059;59.850;10.454;2022-09-09T03:27:06;12.60;99.90
19799;DHT22;10059;59.850;10.454;2022-09-09T03:29:32;12.60;99.90
19799;DHT22;10059;59.850;10.454;2022-09-09T03:31:59;12.50;99.90
19799;DHT22;10059;59.850;10.454;2022-09-09T03:34:28;12.50;99.90
19799;DHT22;10059;59.850;10.454;2022-09-09T03:36:54;12.50;99.90
19799;DHT22;10059;59.850;10.454;2022-09-09T03:39:21;12.50;99.90
19799;DHT22;10059;59.850;10.454;2022-09-09T03:41:48;12.40;99.90
19799;DHT22;10059;59.850;10.454;2022-09-09T03:44:15;12.40;99.90
19799;DHT22;10059;59.850;10.454;2022-09-09T03:46:42;12.40;99.90
19799;DHT22;10059;59.850;10.454;2022-09-09T03:49:09;12.40;99.90
19799;DHT22;10059;59.850;10.454;2022-09-09T03:51:38;12.50;99.90
19799;DHT22;10059;59.850;10.454;2022-09-09T03:54:06;12.40;99.90
19799;DHT22;10059;59.850;10.454;2022-09-09T03:56:35;12.40;99.90
19799;DHT22;10059;59.850;10.454;2022-09-09T03:59:02;12.40;99.90
19799;DHT22;10059;59.850;10.454;2022-09-09T04:01:29;12.30;99.90
19799;DHT22;10059;59.850;10.454;2022-09-09T04:03:56;12.30;99.90
19799;DHT22;10059;59.850;10.454;2022-09-09T04:06:24;12.40;99.90
19799;DHT22;10059;59.850;10.454;2022-09-09T04:08:52;12.40;99.90
19799;DHT22;10059;59.850;10.454;2022-09-09T04:11:20;12.30;99.90
19799;DHT22;10059;59.850;10.454;2022-09-09T04:13:47;12.30;99.90
19799;DHT22;10059;59.850;10.454;2022-09-09T04:16:15;12.30;99.90
19799;DHT22;10059;59.850;10.454;2022-09-09T04:18:42;12.30;99.90
19799;DHT22;10059;59.850;10.454;2022-09-09T04:21:10;12.20;99.90
19799;DHT22;10059;59.850;10.454;2022-09-09T04:23:37;12.20;99.90
19799;DHT22;10059;59.850;10.454;2022-09-09T04:26:06;12.30;99.90
19799;DHT22;10059;59.850;10.454;2022-09-09T04:28:35;12.20;99.90
19799;DHT22;10059;59.850;10.454;2022-09-09T04:31:06;12.20;99.90
19799;DHT22;10059;59.850;10.454;2022-09-09T04:33:34;12.20;99.90
19799;DHT22;10059;59.850;10.454;2022-09-09T04:36:02;12.20;99.90
19799;DHT22;10059;59.850;10.454;2022-09-09T04:38:28;12.10;99.90
19799;DHT22;10059;59.850;10.454;2022-09-09T04:40:55;12.20;99.90
19799;DHT22;10059;59.850;10.454;2022-09-09T04:43:24;12.20;99.90
19799;DHT22;10059;59.850;10.454;2022-09-09T04:45:56;12.10;99.90
19799;DHT22;10059;59.850;10.454;2022-09-09T04:48:23;12.10;99.90
19799;DHT22;10059;59.850;10.454;2022-09-09T04:50:55;12.30;99.90
19799;DHT22;10059;59.850;10.454;2022-09-09T04:53:22;12.20;99.90
19799;DHT22;10059;59.850;10.454;2022-09-09T04:55:49;12.20;99.90
19799;DHT22;10059;59.850;10.454;2022-09-09T04:58:16;12.30;99.90
19799;DHT22;10059;59.850;10.454;2022-09-09T05:00:45;12.30;99.90
19799;DHT22;10059;59.850;10.454;2022-09-09T05:03:12;12.40;99.90
19799;DHT22;10059;59.850;10.454;2022-09-09T05:05:39;12.40;99.90
19799;DHT22;10059;59.850;10.454;2022-09-09T05:08:07;12.30;99.90
19799;DHT22;10059;59.850;10.454;2022-09-09T05:10:37;12.30;99.90
19799;DHT22;10059;59.850;10.454;2022-09-09T05:13:05;12.30;99.90
19799;DHT22;10059;59.850;10.454;2022-09-09T05:15:32;12.40;99.90
19799;DHT22;10059;59.850;10.454;2022-09-09T05:18:01;12.40;99.90
19799;DHT22;10059;59.850;10.454;2022-09-09T05:20:28;12.30;99.90
19799;DHT22;10059;59.850;10.454;2022-09-09T05:22:55;12.40;99.90
19799;DHT22;10059;59.850;10.454;2022-09-09T05:25:22;12.30;99.90
19799;DHT22;10059;59.850;10.454;2022-09-09T05:27:51;12.20;99.90
19799;DHT22;10059;59.850;10.454;2022-09-09T05:30:19;12.30;99.90
19799;DHT22;10059;59.850;10.454;2022-09-09T05:32:46;12.40;99.90
19799;DHT22;10059;59.850;10.454;2022-09-09T05:35:14;12.40;99.90
19799;DHT22;10059;59.850;10.454;2022-09-09T05:37:43;12.40;99.90
19799;DHT22;10059;59.850;10.454;2022-09-09T05:40:11;12.30;99.90
19799;DHT22;10059;59.850;10.454;2022-09-09T05:42:38;12.40;99.90
19799;DHT22;10059;59.850;10.454;2022-09-09T05:45:06;12.50;99.90
19799;DHT22;10059;59.850;10.454;2022-09-09T05:47:34;12.50;99.90
19799;DHT22;10059;59.850;10.454;2022-09-09T05:50:03;12.70;99.90
19799;DHT22;10059;59.850;10.454;2022-09-09T05:52:31;12.80;99.90
19799;DHT22;10059;59.850;10.454;2022-09-09T05:54:58;12.90;99.90
19799;DHT22;10059;59.850;10.454;2022-09-09T05:57:25;13.00;99.90
19799;DHT22;10059;59.850;10.454;2022-09-09T05:59:52;13.10;99.90
19799;DHT22;10059;59.850;10.454;2022-09-09T06:02:19;13.10;99.90
19799;DHT22;10059;59.850;10.454;2022-09-09T06:04:46;13.20;99.90
19799;DHT22;10059;59.850;10.454;2022-09-09T06:07:13;13.40;99.90
19799;DHT22;10059;59.850;10.454;2022-09-09T06:09:41;13.30;99.90
19799;DHT22;10059;59.850;10.454;2022-09-09T06:12:08;13.60;99.90
19799;DHT22;10059;59.850;10.454;2022-09-09T06:14:35;13.70;99.90
19799;DHT22;10059;59.850;10.454;2022-09-09T06:17:03;13.80;99.90
19799;DHT22;10059;59.850;10.454;2022-09-09T06:19:30;14.00;99.90
19799;DHT22;10059;59.850;10.454;2022-09-09T06:21:57;14.00;99.90
19799;DHT22;10059;59.850;10.454;2022-09-09T06:24:25;14.40;99.90
19799;DHT22;10059;59.850;10.454;2022-09-09T06:26:53;14.30;99.90
19799;DHT22;10059;59.850;10.454;2022-09-09T06:29:20;14.50;99.90
19799;DHT22;10059;59.850;10.454;2022-09-09T06:31:47;14.80;99.90
19799;DHT22;10059;59.850;10.454;2022-09-09T06:34:14;14.50;99.90
19799;DHT22;10059;59.850;10.454;2022-09-09T06:36:41;14.30;99.90
19799;DHT22;10059;59.850;10.454;2022-09-09T06:39:08;14.20;99.90
19799;DHT22;10059;59.850;10.454;2022-09-09T06:41:36;14.10;99.90
19799;DHT22;10059;59.850;10.454;2022-09-09T06:44:05;13.70;99.90
19799;DHT22;10059;59.850;10.454;2022-09-09T06:46:32;13.40;99.90
19799;DHT22;10059;59.850;10.454;2022-09-09T06:49:01;13.10;99.90
19799;DHT22;10059;59.850;10.454;2022-09-09T06:51:29;13.00;99.90
19799;DHT22;10059;59.850;10.454;2022-09-09T06:53:57;13.00;99.90
19799;DHT22;10059;59.850;10.454;2022-09-09T06:56:26;12.80;99.90
19799;DHT22;10059;59.850;10.454;2022-09-09T06:58:55;12.80;99.90
19799;DHT22;10059;59.850;10.454;2022-09-09T07:01:24;12.80;99.90
19799;DHT22;10059;59.850;10.454;2022-09-09T07:03:53;12.90;99.90
19799;DHT22;10059;59.850;10.454;2022-09-09T07:06:22;12.90;99.90
19799;DHT22;10059;59.850;10.454;2022-09-09T07:08:51;13.00;99.90
19799;DHT22;10059;59.850;10.454;2022-09-09T07:11:19;12.90;99.90
19799;DHT22;10059;59.850;10.454;2022-09-09T07:13:46;12.90;99.90
19799;DHT22;10059;59.850;10.454;2022-09-09T07:16:15;12.90;99.90
19799;DHT22;10059;59.850;10.454;2022-09-09T07:18:44;12.90;99.90
19799;DHT22;10059;59.850;10.454;2022-09-09T07:21:11;13.00;99.90
19799;DHT22;10059;59.850;10.454;2022-09-09T07:23:39;13.10;99.90
19799;DHT22;10059;59.850;10.454;2022-09-09T07:26:08;13.10;99.90
19799;DHT22;10059;59.850;10.454;2022-09-09T07:28:37;13.10;99.90
19799;DHT22;10059;59.850;10.454;2022-09-09T07:31:05;13.10;99.90
19799;DHT22;10059;59.850;10.454;2022-09-09T07:33:34;13.00;99.90
19799;DHT22;10059;59.850;10.454;2022-09-09T07:36:05;13.00;99.90
19799;DHT22;10059;59.850;10.454;2022-09-09T07:38:33;13.00;99.90
19799;DHT22;10059;59.850;10.454;2022-09-09T07:41:05;13.10;99.90
19799;DHT22;10059;59.850;10.454;2022-09-09T07:43:34;13.10;99.90
19799;DHT22;10059;59.850;10.454;2022-09-09T07:46:01;13.10;99.90
19799;DHT22;10059;59.850;10.454;2022-09-09T07:48:28;13.00;99.90
19799;DHT22;10059;59.850;10.454;2022-09-09T07:51:05;13.00;99.90
19799;DHT22;10059;59.850;10.454;2022-09-09T07:53:33;13.00;99.90
19799;DHT22;10059;59.850;10.454;2022-09-09T07:56:03;13.10;99.90
19799;DHT22;10059;59.850;10.454;2022-09-09T07:58:30;13.20;99.90
19799;DHT22;10059;59.850;10.454;2022-09-09T08:00:57;13.00;99.90
19799;DHT22;10059;59.850;10.454;2022-09-09T08:03:24;13.00;99.90
19799;DHT22;10059;59.850;10.454;2022-09-09T08:05:52;13.00;99.90
19799;DHT22;10059;59.850;10.454;2022-09-09T08:08:20;13.10;99.90
19799;DHT22;10059;59.850;10.454;2022-09-09T08:10:47;13.20;99.90
19799;DHT22;10059;59.850;10.454;2022-09-09T08:13:14;13.30;99.90
19799;DHT22;10059;59.850;10.454;2022-09-09T08:15:41;13.30;99.90
19799;DHT22;10059;59.850;10.454;2022-09-09T08:18:08;13.30;99.90
19799;DHT22;10059;59.850;10.454;2022-09-09T08:20:36;13.30;99.90
19799;DHT22;10059;59.850;10.454;2022-09-09T08:23:03;13.30;99.90
19799;DHT22;10059;59.850;10.454;2022-09-09T08:25:32;13.30;99.90
19799;DHT22;10059;59.850;10.454;2022-09-09T08:28:00;13.30;99.90
19799;DHT22;10059;59.850;10.454;2022-09-09T08:30:26;13.30;99.90
19799;DHT22;10059;59.850;10.454;2022-09-09T08:32:53;13.30;99.90
19799;DHT22;10059;59.850;10.454;2022-09-09T08:35:20;13.20;99.90
19799;DHT22;10059;59.850;10.454;2022-09-09T08:37:47;13.30;99.90
19799;DHT22;10059;59.850;10.454;2022-09-09T08:40:21;13.30;99.90
19799;DHT22;10059;59.850;10.454;2022-09-09T08:42:53;13.30;99.90
19799;DHT22;10059;59.850;10.454;2022-09-09T08:45:27;13.30;99.90
19799;DHT22;10059;59.850;10.454;2022-09-09T08:48:14;13.30;99.90
19799;DHT22;10059;59.850;10.454;2022-09-09T08:50:44;13.20;99.90
19799;DHT22;10059;59.850;10.454;2022-09-09T08:53:17;13.40;99.90
19799;DHT22;10059;59.850;10.454;2022-09-09T08:55:48;13.30;99.90
19799;DHT22;10059;59.850;10.454;2022-09-09T08:58:19;13.20;99.90
19799;DHT22;10059;59.850;10.454;2022-09-09T09:01:14;13.20;99.90
19799;DHT22;10059;59.850;10.454;2022-09-09T09:03:50;13.30;99.90
19799;DHT22;10059;59.850;10.454;2022-09-09T09:06:26;13.30;99.90
19799;DHT22;10059;59.850;10.454;2022-09-09T09:09:02;13.40;99.90
19799;DHT22;10059;59.850;10.454;2022-09-09T09:11:35;13.40;99.90
19799;DHT22;10059;59.850;10.454;2022-09-09T09:14:08;13.40;99.90
19799;DHT22;10059;59.850;10.454;2022-09-09T09:16:40;13.40;99.90
19799;DHT22;10059;59.850;10.454;2022-09-09T09:19:13;13.40;99.90
19799;DHT22;10059;59.850;10.454;2022-09-09T09:21:43;13.40;99.90
19799;DHT22;10059;59.850;10.454;2022-09-09T09:24:16;13.50;99.90
19799;DHT22;10059;59.850;10.454;2022-09-09T09:26:46;13.50;99.90
19799;DHT22;10059;59.850;10.454;2022-09-09T09:29:16;13.40;99.90
19799;DHT22;10059;59.850;10.454;2022-09-09T09:31:47;13.30;99.90
19799;DHT22;10059;59.850;10.454;2022-09-09T09:34:15;13.40;99.90
19799;DHT22;10059;59.850;10.454;2022-09-09T09:36:44;13.40;99.90
19799;DHT22;10059;59.850;10.454;2022-09-09T09:39:23;13.40;99.90
19799;DHT22;10059;59.850;10.454;2022-09-09T09:41:51;13.50;99.90
19799;DHT22;10059;59.850;10.454;2022-09-09T09:44:27;13.50;99.90
19799;DHT22;10059;59.850;10.454;2022-09-09T09:47:06;13.40;99.90
19799;DHT22;10059;59.850;10.454;2022-09-09T09:49:33;13.50;99.90
19799;DHT22;10059;59.850;10.454;2022-09-09T09:52:00;13.40;99.90
19799;DHT22;10059;59.850;10.454;2022-09-09T09:54:30;13.50;99.90
19799;DHT22;10059;59.850;10.454;2022-09-09T09:57:08;13.70;99.90
19799;DHT22;10059;59.850;10.454;2022-09-09T09:59:37;13.70;99.90
19799;DHT22;10059;59.850;10.454;2022-09-09T10:02:14;13.70;99.90
19799;DHT22;10059;59.850;10.454;2022-09-09T10:04:42;13.60;99.90
19799;DHT22;10059;59.850;10.454;2022-09-09T10:07:11;13.70;99.90
19799;DHT22;10059;59.850;10.454;2022-09-09T10:09:38;13.70;99.90
19799;DHT22;10059;59.850;10.454;2022-09-09T10:12:16;13.90;99.90
19799;DHT22;10059;59.850;10.454;2022-09-09T10:14:52;13.80;99.90
19799;DHT22;10059;59.850;10.454;2022-09-09T10:17:27;13.80;99.90
19799;DHT22;10059;59.850;10.454;2022-09-09T10:20:07;14.00;99.90
19799;DHT22;10059;59.850;10.454;2022-09-09T10:22:39;14.00;99.90
19799;DHT22;10059;59.850;10.454;2022-09-09T10:25:31;13.90;99.90
19799;DHT22;10059;59.850;10.454;2022-09-09T10:28:27;14.00;99.90
19799;DHT22;10059;59.850;10.454;2022-09-09T10:31:08;14.10;99.90
19799;DHT22;10059;59.850;10.454;2022-09-09T10:33:42;14.10;99.90
19799;DHT22;10059;59.850;10.454;2022-09-09T10:36:13;14.20;99.90
19799;DHT22;10059;59.850;10.454;2022-09-09T10:38:45;14.30;99.90
19799;DHT22;10059;59.850;10.454;2022-09-09T10:41:18;14.50;99.90
19799;DHT22;10059;59.850;10.454;2022-09-09T10:44:02;14.50;99.90
19799;DHT22;10059;59.850;10.454;2022-09-09T10:46:43;14.70;99.90
19799;DHT22;10059;59.850;10.454;2022-09-09T10:49:20;15.10;99.90
19799;DHT22;10059;59.850;10.454;2022-09-09T10:51:56;15.50;99.90
19799;DHT22;10059;59.850;10.454;2022-09-09T10:54:38;15.60;99.90
19799;DHT22;10059;59.850;10.454;2022-09-09T10:57:12;15.60;99.90
19799;DHT22;10059;59.850;10.454;2022-09-09T10:59:47;15.60;99.90
19799;DHT22;10059;59.850;10.454;2022-09-09T11:02:21;15.60;99.90
19799;DHT22;10059;59.850;10.454;2022-09-09T11:04:55;15.60;99.90
19799;DHT22;10059;59.850;10.454;2022-09-09T11:07:28;15.50;99.90
19799;DHT22;10059;59.850;10.454;2022-09-09T11:10:01;15.60;99.90
19799;DHT22;10059;59.850;10.454;2022-09-09T11:12:31;15.60;99.90
19799;DHT22;10059;59.850;10.454;2022-09-09T11:15:05;15.50;99.90
19799;DHT22;10059;59.850;10.454;2022-09-09T11:17:38;15.20;99.90
19799;DHT22;10059;59.850;10.454;2022-09-09T11:20:10;15.30;99.90
19799;DHT22;10059;59.850;10.454;2022-09-09T11:22:39;15.20;99.90
19799;DHT22;10059;59.850;10.454;2022-09-09T11:25:15;15.20;99.90
19799;DHT22;10059;59.850;10.454;2022-09-09T11:27:54;15.30;99.90
19799;DHT22;10059;59.850;10.454;2022-09-09T11:30:27;15.20;99.90
19799;DHT22;10059;59.850;10.454;2022-09-09T11:33:30;15.30;99.90
19799;DHT22;10059;59.850;10.454;2022-09-09T11:36:12;15.10;99.90
19799;DHT22;10059;59.850;10.454;2022-09-09T11:38:45;15.00;99.90
19799;DHT22;10059;59.850;10.454;2022-09-09T11:41:13;15.10;99.90
19799;DHT22;10059;59.850;10.454;2022-09-09T11:43:43;15.20;99.90
19799;DHT22;10059;59.850;10.454;2022-09-09T11:46:11;15.40;99.90
19799;DHT22;10059;59.850;10.454;2022-09-09T11:48:42;15.80;99.90
19799;DHT22;10059;59.850;10.454;2022-09-09T11:51:12;16.70;99.90
19799;DHT22;10059;59.850;10.454;2022-09-09T11:53:50;16.90;99.90
19799;DHT22;10059;59.850;10.454;2022-09-09T11:56:30;16.50;99.90
19799;DHT22;10059;59.850;10.454;2022-09-09T11:59:00;16.50;99.90
19799;DHT22;10059;59.850;10.454;2022-09-09T12:01:36;16.30;99.90
19799;DHT22;10059;59.850;10.454;2022-09-09T12:04:27;16.30;99.90
19799;DHT22;10059;59.850;10.454;2022-09-09T12:06:58;16.10;99.90
19799;DHT22;10059;59.850;10.454;2022-09-09T12:09:31;16.00;99.90
19799;DHT22;10059;59.850;10.454;2022-09-09T12:12:06;15.70;99.90
19799;DHT22;10059;59.850;10.454;2022-09-09T12:14:37;15.70;99.90
19799;DHT22;10059;59.850;10.454;2022-09-09T12:17:19;15.70;99.90
19799;DHT22;10059;59.850;10.454;2022-09-09T12:19:48;15.60;99.90
19799;DHT22;10059;59.850;10.454;2022-09-09T12:22:22;15.70;99.90
19799;DHT22;10059;59.850;10.454;2022-09-09T12:24:58;15.60;99.90
19799;DHT22;10059;59.850;10.454;2022-09-09T12:27:34;15.60;99.90
19799;DHT22;10059;59.850;10.454;2022-09-09T12:30:07;15.70;99.90
19799;DHT22;10059;59.850;10.454;2022-09-09T12:32:35;15.80;99.90
19799;DHT22;10059;59.850;10.454;2022-09-09T12:35:10;15.90;99.90
19799;DHT22;10059;59.850;10.454;2022-09-09T12:37:40;16.10;99.90
19799;DHT22;10059;59.850;10.454;2022-09-09T12:40:19;16.40;99.90
19799;DHT22;10059;59.850;10.454;2022-09-09T12:42:47;16.50;99.90
19799;DHT22;10059;59.850;10.454;2022-09-09T12:45:18;16.50;99.90
19799;DHT22;10059;59.850;10.454;2022-09-09T12:47:48;16.50;99.90
19799;DHT22;10059;59.850;10.454;2022-09-09T12:50:20;16.30;99.90
19799;DHT22;10059;59.850;10.454;2022-09-09T12:52:49;16.40;99.90
19799;DHT22;10059;59.850;10.454;2022-09-09T12:55:19;16.50;99.90
19799;DHT22;10059;59.850;10.454;2022-09-09T12:57:48;16.70;99.90
19799;DHT22;10059;59.850;10.454;2022-09-09T13:00:18;16.50;99.90
19799;DHT22;10059;59.850;10.454;2022-09-09T13:02:50;16.60;99.90
19799;DHT22;10059;59.850;10.454;2022-09-09T13:05:22;16.60;99.90
19799;DHT22;10059;59.850;10.454;2022-09-09T13:07:49;16.70;99.90
19799;DHT22;10059;59.850;10.454;2022-09-09T13:10:23;16.40;99.90
19799;DHT22;10059;59.850;10.454;2022-09-09T13:12:52;16.40;99.90
19799;DHT22;10059;59.850;10.454;2022-09-09T13:15:22;16.60;99.90
19799;DHT22;10059;59.850;10.454;2022-09-09T13:17:52;16.70;99.90
19799;DHT22;10059;59.850;10.454;2022-09-09T13:20:23;16.90;99.90
19799;DHT22;10059;59.850;10.454;2022-09-09T13:22:51;16.80;99.90
19799;DHT22;10059;59.850;10.454;2022-09-09T13:25:22;17.50;99.90
19799;DHT22;10059;59.850;10.454;2022-09-09T13:27:57;18.00;99.90
19799;DHT22;10059;59.850;10.454;2022-09-09T13:30:27;18.50;99.90
19799;DHT22;10059;59.850;10.454;2022-09-09T13:33:06;18.30;99.90
19799;DHT22;10059;59.850;10.454;2022-09-09T13:35:48;18.80;99.90
19799;DHT22;10059;59.850;10.454;2022-09-09T13:38:16;19.20;99.90
19799;DHT22;10059;59.850;10.454;2022-09-09T13:40:53;19.00;99.90
19799;DHT22;10059;59.850;10.454;2022-09-09T13:43:22;18.80;99.90
19799;DHT22;10059;59.850;10.454;2022-09-09T13:45:55;19.00;99.90
19799;DHT22;10059;59.850;10.454;2022-09-09T13:48:24;19.00;99.90
19799;DHT22;10059;59.850;10.454;2022-09-09T13:50:57;19.00;99.90
19799;DHT22;10059;59.850;10.454;2022-09-09T13:53:24;18.70;99.90
19799;DHT22;10059;59.850;10.454;2022-09-09T13:55:51;18.00;99.90
19799;DHT22;10059;59.850;10.454;2022-09-09T13:58:19;18.00;99.90
19799;DHT22;10059;59.850;10.454;2022-09-09T14:00:48;17.90;99.90
19799;DHT22;10059;59.850;10.454;2022-09-09T14:03:15;17.90;99.90
19799;DHT22;10059;59.850;10.454;2022-09-09T14:05:43;17.90;99.90
19799;DHT22;10059;59.850;10.454;2022-09-09T14:08:20;18.10;99.90
19799;DHT22;10059;59.850;10.454;2022-09-09T14:10:48;18.40;99.90
19799;DHT22;10059;59.850;10.454;2022-09-09T14:13:15;18.40;99.90
19799;DHT22;10059;59.850;10.454;2022-09-09T14:15:42;18.60;99.90
19799;DHT22;10059;59.850;10.454;2022-09-09T14:18:11;18.60;99.90
19799;DHT22;10059;59.850;10.454;2022-09-09T14:20:39;18.80;99.90
19799;DHT22;10059;59.850;10.454;2022-09-09T14:23:05;18.60;99.90
19799;DHT22;10059;59.850;10.454;2022-09-09T14:25:34;18.50;99.90
19799;DHT22;10059;59.850;10.454;2022-09-09T14:28:01;18.60;99.90
19799;DHT22;10059;59.850;10.454;2022-09-09T14:30:28;18.50;99.90
19799;DHT22;10059;59.850;10.454;2022-09-09T14:32:55;18.20;99.90
19799;DHT22;10059;59.850;10.454;2022-09-09T14:35:22;18.00;99.90
19799;DHT22;10059;59.850;10.454;2022-09-09T14:37:49;17.80;99.90
19799;DHT22;10059;59.850;10.454;2022-09-09T14:40:17;17.40;99.90
19799;DHT22;10059;59.850;10.454;2022-09-09T14:42:45;17.20;99.90
19799;DHT22;10059;59.850;10.454;2022-09-09T14:45:12;17.20;99.90
19799;DHT22;10059;59.850;10.454;2022-09-09T14:47:39;17.00;99.90
19799;DHT22;10059;59.850;10.454;2022-09-09T14:50:06;16.90;99.90
19799;DHT22;10059;59.850;10.454;2022-09-09T14:52:34;16.90;99.90
19799;DHT22;10059;59.850;10.454;2022-09-09T14:55:01;16.90;99.90
19799;DHT22;10059;59.850;10.454;2022-09-09T14:57:28;17.00;99.90
19799;DHT22;10059;59.850;10.454;2022-09-09T14:59:57;17.20;99.90
19799;DHT22;10059;59.850;10.454;2022-09-09T15:02:24;17.00;99.90
19799;DHT22;10059;59.850;10.454;2022-09-09T15:04:50;16.80;99.90
19799;DHT22;10059;59.850;10.454;2022-09-09T15:07:18;16.80;99.90
19799;DHT22;10059;59.850;10.454;2022-09-09T15:09:45;16.80;99.90
19799;DHT22;10059;59.850;10.454;2022-09-09T15:12:14;16.70;99.90
19799;DHT22;10059;59.850;10.454;2022-09-09T15:14:41;16.70;99.90
19799;DHT22;10059;59.850;10.454;2022-09-09T15:17:09;16.70;99.90
19799;DHT22;10059;59.850;10.454;2022-09-09T15:19:36;16.60;99.90
19799;DHT22;10059;59.850;10.454;2022-09-09T15:22:03;16.60;99.90
19799;DHT22;10059;59.850;10.454;2022-09-09T15:24:31;16.50;99.90
19799;DHT22;10059;59.850;10.454;2022-09-09T15:26:58;16.50;99.90
19799;DHT22;10059;59.850;10.454;2022-09-09T15:29:25;16.40;99.90
19799;DHT22;10059;59.850;10.454;2022-09-09T15:31:53;16.40;99.90
19799;DHT22;10059;59.850;10.454;2022-09-09T15:34:22;16.40;99.90
19799;DHT22;10059;59.850;10.454;2022-09-09T15:36:49;16.40;99.90